Time;durP1;ratioP1;P1;durP2;ratioP2;P2;SDS_P1;SDS_P2;PMS_P1;PMS_P2;Temp;Humidity;BMP_temperature;BMP_pressure;BME280_temperature;BME280_humidity;BME280_pressure;Samples;Min_cycle;Max_cycle;Signal;HPM_P1;HPM_P2
2021/12/27 00:02:12;;;;;;;20.75;11.85;;;;;;;0.83;100.00;100319.31;5049013;28;20018;-37
2021/12/27 00:04:42;;;;;;;19.35;10.88;;;;;;;0.84;100.00;100310.81;5043764;28;20045;-29
2021/12/27 00:07:10;;;;;;;20.98;11.98;;;;;;;0.85;100.00;100323.47;5032627;28;20056;-33
2021/12/27 00:09:39;;;;;;;19.95;11.60;;;;;;;0.86;100.00;100316.91;5037289;28;20422;-31
2021/12/27 00:12:08;;;;;;;20.63;11.18;;;;;;;0.87;100.00;100313.06;5049222;28;20041;-28
2021/12/27 00:14:35;;;;;;;23.55;14.07;;;;;;;0.87;100.00;100301.25;5043619;28;20421;-34
2021/12/27 00:17:04;;;;;;;24.33;12.85;;;;;;;0.89;100.00;100305.44;5033448;28;20053;-33
2021/12/27 00:19:32;;;;;;;19.65;11.70;;;;;;;0.89;100.00;100299.94;5039117;28;20056;-31
2021/12/27 00:22:01;;;;;;;21.83;11.63;;;;;;;0.90;100.00;100287.88;5046056;28;20049;-33
2021/12/27 00:24:29;;;;;;;20.40;11.60;;;;;;;0.91;100.00;100277.72;5041601;28;20083;-35
2021/12/27 00:26:57;;;;;;;20.17;12.00;;;;;;;0.91;100.00;100289.53;5037922;28;20057;-33
2021/12/27 00:29:25;;;;;;;22.08;12.27;;;;;;;0.90;100.00;100282.38;5038899;28;20053;-38
2021/12/27 00:31:52;;;;;;;21.38;12.05;;;;;;;0.93;100.00;100284.63;5043336;28;20071;-36
2021/12/27 00:34:20;;;;;;;22.92;12.45;;;;;;;0.88;100.00;100281.78;5046625;28;20457;-35
2021/12/27 00:36:48;;;;;;;25.95;13.70;;;;;;;0.85;100.00;100279.53;5043491;28;20053;-33
2021/12/27 00:39:17;;;;;;;22.42;13.55;;;;;;;0.82;100.00;100285.53;5048403;28;20056;-33
2021/12/27 00:41:45;;;;;;;24.60;14.50;;;;;;;0.81;100.00;100269.28;5046112;28;20045;-36
2021/12/27 00:44:13;;;;;;;21.50;12.27;;;;;;;0.79;100.00;100264.06;5038286;28;20060;-39
2021/12/27 00:46:41;;;;;;;21.98;12.13;;;;;;;0.78;100.00;100265.16;5046007;28;20099;-39
2021/12/27 00:49:09;;;;;;;22.00;12.25;;;;;;;0.78;100.00;100272.56;5038706;28;20053;-33
2021/12/27 00:51:37;;;;;;;21.98;12.65;;;;;;;0.74;100.00;100274.97;5041205;28;20040;-32
2021/12/27 00:54:04;;;;;;;24.02;13.63;;;;;;;0.72;100.00;100268.88;5052903;28;20049;-32
2021/12/27 00:56:34;;;;;;;26.00;13.93;;;;;;;0.70;100.00;100268.31;5047276;28;20068;-34
2021/12/27 00:59:02;;;;;;;23.10;12.88;;;;;;;0.68;100.00;100270.47;5035274;28;20045;-31
2021/12/27 01:01:29;;;;;;;26.02;14.13;;;;;;;0.68;100.00;100264.97;5041380;28;20055;-37
2021/12/27 01:03:59;;;;;;;22.90;12.52;;;;;;;0.68;100.00;100264.97;5052871;28;20049;-35
2021/12/27 01:06:27;;;;;;;24.33;12.85;;;;;;;0.67;100.00;100264.13;5046573;28;20076;-37
2021/12/27 01:08:55;;;;;;;25.13;13.18;;;;;;;0.65;100.00;100255.31;5036560;28;20049;-33
2021/12/27 01:11:26;;;;;;;25.70;13.35;;;;;;;0.65;100.00;100254.47;5040945;28;20048;-34
2021/12/27 01:14:04;;;;;;;25.45;13.63;;;;;;;0.62;100.00;100255.81;5050268;28;20413;-35
2021/12/27 01:16:31;;;;;;;23.80;13.23;;;;;;;0.64;100.00;100248.16;5045848;28;20047;-33
2021/12/27 01:18:59;;;;;;;24.20;13.65;;;;;;;0.64;100.00;100244.59;5037950;28;20053;-31
2021/12/27 01:21:27;;;;;;;23.83;12.85;;;;;;;0.65;100.00;100243.50;5042199;28;20161;-33
2021/12/27 01:23:56;;;;;;;27.92;14.30;;;;;;;0.62;100.00;100244.81;5030273;28;20481;-36
2021/12/27 01:26:26;;;;;;;23.45;13.82;;;;;;;0.64;100.00;100244.59;5044826;28;20060;-32
2021/12/27 01:28:57;;;;;;;23.95;13.95;;;;;;;0.64;100.00;100244.59;5042059;28;20136;-36
2021/12/27 01:31:25;;;;;;;27.48;14.93;;;;;;;0.61;100.00;100247.81;5042093;28;20052;-35
2021/12/27 01:33:53;;;;;;;25.42;13.75;;;;;;;0.62;100.00;100244.00;5043806;28;20059;-31
2021/12/27 01:36:21;;;;;;;24.65;13.48;;;;;;;0.63;100.00;100238.25;5045661;28;20049;-37
2021/12/27 01:38:49;;;;;;;25.88;13.60;;;;;;;0.63;100.00;100240.16;5045249;28;20049;-40
2021/12/27 01:41:18;;;;;;;25.27;13.68;;;;;;;0.65;100.00;100230.59;5038585;28;20131;-36
2021/12/27 01:43:46;;;;;;;27.67;14.98;;;;;;;0.66;100.00;100229.53;5041387;28;20045;-35
2021/12/27 01:46:17;;;;;;;25.33;14.07;;;;;;;0.62;100.00;100220.13;5048988;28;20107;-41
2021/12/27 01:48:54;;;;;;;28.17;14.38;;;;;;;0.65;100.00;100218.78;5044143;28;20053;-38
2021/12/27 01:51:23;;;;;;;28.23;15.15;;;;;;;0.62;100.00;100214.63;5038243;28;20064;-37
2021/12/27 01:53:52;;;;;;;28.00;14.45;;;;;;;0.61;100.00;100214.88;5041947;28;20053;-38
2021/12/27 01:56:22;;;;;;;29.00;16.00;;;;;;;0.62;100.00;100213.78;5049615;28;20061;-29
2021/12/27 01:58:50;;;;;;;30.55;15.80;;;;;;;0.61;100.00;100210.22;5045920;28;20056;-38
2021/12/27 02:01:21;;;;;;;29.33;15.23;;;;;;;0.65;100.00;100205.06;5034082;28;20049;-36
2021/12/27 02:03:51;;;;;;;28.17;14.52;;;;;;;0.66;100.00;100210.31;5040801;28;20103;-30
2021/12/27 02:06:19;;;;;;;29.38;14.27;;;;;;;0.67;100.00;100205.66;5052084;28;20044;-34
2021/12/27 02:08:47;;;;;;;28.58;15.55;;;;;;;0.67;100.00;100211.13;5027480;28;20135;-35
2021/12/27 02:11:18;;;;;;;33.92;17.25;;;;;;;0.69;100.00;100214.47;5051789;28;20175;-31
2021/12/27 02:13:46;;;;;;;27.90;15.10;;;;;;;0.68;100.00;100205.41;5045952;28;20048;-35
2021/12/27 02:16:16;;;;;;;31.08;15.40;;;;;;;0.68;100.00;100218.28;5034266;28;20509;-33
2021/12/27 02:18:45;;;;;;;30.88;15.02;;;;;;;0.67;100.00;100222.13;5040243;28;20041;-33
2021/12/27 02:21:16;;;;;;;31.88;16.63;;;;;;;0.66;100.00;100214.97;5050392;28;20049;-36
2021/12/27 02:23:44;;;;;;;32.97;16.52;;;;;;;0.65;100.00;100205.06;5043775;28;20043;-38
2021/12/27 02:26:12;;;;;;;28.83;15.93;;;;;;;0.60;100.00;100207.75;5037345;28;20053;-39
2021/12/27 02:28:40;;;;;;;30.42;16.50;;;;;;;0.62;100.00;100202.81;5041195;28;20045;-38
2021/12/27 02:31:10;;;;;;;32.10;16.10;;;;;;;0.63;100.00;100204.47;5045398;28;20127;-39
2021/12/27 02:33:38;;;;;;;31.45;15.32;;;;;;;0.62;100.00;100203.66;5044214;28;20426;-41
2021/12/27 02:36:07;;;;;;;31.02;15.75;;;;;;;0.60;100.00;100205.00;5040736;28;20064;-35
2021/12/27 02:38:39;;;;;;;28.17;16.20;;;;;;;0.62;100.00;100194.56;5040632;28;20082;-34
2021/12/27 02:41:09;;;;;;;27.30;15.52;;;;;;;0.61;100.00;100201.16;5043346;28;20048;-35
2021/12/27 02:43:39;;;;;;;29.95;15.85;;;;;;;0.64;100.00;100195.16;5043821;28;20041;-37
2021/12/27 02:46:09;;;;;;;26.98;14.73;;;;;;;0.65;100.00;100189.44;5040681;28;20049;-34
2021/12/27 02:48:39;;;;;;;28.92;15.55;;;;;;;0.66;100.00;100182.03;5045846;28;20048;-37
2021/12/27 02:51:08;;;;;;;32.22;16.75;;;;;;;0.66;100.00;100182.03;5042940;28;20051;-36
2021/12/27 02:53:37;;;;;;;27.13;15.85;;;;;;;0.67;100.00;100172.69;5035990;28;20504;-34
2021/12/27 02:56:06;;;;;;;27.75;15.60;;;;;;;0.65;100.00;100175.69;5041139;28;20069;-34
2021/12/27 02:58:35;;;;;;;32.13;15.88;;;;;;;0.67;100.00;100161.72;5046885;28;20132;-35
2021/12/27 03:01:07;;;;;;;30.85;15.55;;;;;;;0.67;100.00;100167.22;5040296;28;20045;-37
2021/12/27 03:03:36;;;;;;;31.05;15.88;;;;;;;0.65;100.00;100169.38;5048726;28;20099;-38
2021/12/27 03:06:05;;;;;;;31.33;15.50;;;;;;;0.68;100.00;100166.13;5043747;28;20056;-33
2021/12/27 03:08:34;;;;;;;38.55;18.13;;;;;;;0.68;100.00;100168.88;5033804;28;20048;-34
2021/12/27 03:11:05;;;;;;;36.97;16.95;;;;;;;0.69;100.00;100165.06;5039793;28;20049;-35
2021/12/27 03:13:35;;;;;;;32.75;15.38;;;;;;;0.72;100.00;100159.06;5050007;28;20048;-32
2021/12/27 03:16:05;;;;;;;31.48;16.35;;;;;;;0.72;100.00;100164.56;5043920;28;20077;-38
2021/12/27 03:18:34;;;;;;;33.88;16.52;;;;;;;0.73;100.00;100166.22;5015120;28;20052;-37
2021/12/27 03:21:02;;;;;;;38.53;17.92;;;;;;;0.74;100.00;100172.53;5038754;28;20132;-30
2021/12/27 03:23:30;;;;;;;35.95;17.08;;;;;;;0.74;100.00;100172.53;5049872;28;20465;-32
2021/12/27 03:25:58;;;;;;;35.63;17.60;;;;;;;0.73;100.00;100165.38;5043748;28;20049;-34
2021/12/27 03:28:28;;;;;;;36.15;17.55;;;;;;;0.73;100.00;100171.72;5035028;28;20148;-32
2021/12/27 03:30:57;;;;;;;38.28;16.70;;;;;;;0.76;100.00;100165.72;5039745;28;20033;-33
2021/12/27 03:33:26;;;;;;;33.03;15.75;;;;;;;0.76;100.00;100171.22;5046536;28;20518;-38
2021/12/27 03:36:01;;;;;;;37.45;18.10;;;;;;;0.79;100.00;100169.88;5041978;28;20044;-35
2021/12/27 03:38:29;;;;;;;36.05;16.75;;;;;;;0.79;100.00;100161.63;5037590;28;20133;-37
2021/12/27 03:40:57;;;;;;;43.75;17.65;;;;;;;0.80;100.00;100158.63;5038923;28;20045;-31
2021/12/27 03:43:25;;;;;;;40.78;18.10;;;;;;;0.81;100.00;100162.19;5044041;28;20040;-33
2021/12/27 03:45:54;;;;;;;34.85;16.35;;;;;;;0.79;100.00;100156.97;5042859;28;20056;-35
2021/12/27 03:48:22;;;;;;;35.15;16.17;;;;;;;0.84;100.00;100158.94;5040094;28;20060;-29
2021/12/27 03:50:50;;;;;;;33.35;16.58;;;;;;;0.83;100.00;100158.13;5037634;28;20056;-37
2021/12/27 03:53:18;;;;;;;35.50;16.83;;;;;;;0.85;100.00;100158.69;5039236;28;20052;-39
2021/12/27 03:55:46;;;;;;;43.63;17.58;;;;;;;0.85;100.00;100163.34;5044246;28;20525;-32
2021/12/27 03:58:25;;;;;;;46.33;19.35;;;;;;;0.86;100.00;100159.53;5042609;28;20049;-36
2021/12/27 04:01:14;;;;;;;42.67;18.65;;;;;;;0.83;100.00;100152.63;5035719;28;20399;-32
2021/12/27 04:03:44;;;;;;;35.58;16.05;;;;;;;0.85;100.00;100150.47;5040622;28;20045;-36
2021/12/27 04:06:13;;;;;;;42.00;17.63;;;;;;;0.86;100.00;100149.38;5043123;28;20075;-34
2021/12/27 04:08:41;;;;;;;43.17;17.58;;;;;;;0.88;100.00;100152.69;5041757;28;20136;-34
2021/12/27 04:11:09;;;;;;;40.10;18.02;;;;;;;0.88;100.00;100149.13;5034704;28;20048;-40
2021/12/27 04:13:37;;;;;;;36.65;17.02;;;;;;;0.89;100.00;100148.88;5040043;28;20064;-35
2021/12/27 04:16:06;;;;;;;41.55;17.95;;;;;;;0.91;100.00;100137.63;5046073;28;20053;-39
2021/12/27 04:18:35;;;;;;;42.05;17.67;;;;;;;0.91;100.00;100137.63;5043125;28;20107;-35
2021/12/27 04:21:03;;;;;;;44.90;18.55;;;;;;;0.91;100.00;100134.88;5033041;28;20483;-34
2021/12/27 04:23:31;;;;;;;40.78;17.33;;;;;;;0.92;100.00;100131.88;5037478;28;20494;-34
2021/12/27 04:25:58;;;;;;;43.72;18.70;;;;;;;0.94;100.00;100117.91;5049663;28;20045;-31
2021/12/27 04:28:26;;;;;;;38.42;17.60;;;;;;;0.94;100.00;100121.47;5043883;28;20048;-33
2021/12/27 04:30:54;;;;;;;38.47;17.23;;;;;;;0.97;100.00;100122.91;5029558;28;20418;-31
2021/12/27 04:33:24;;;;;;;41.78;17.92;;;;;;;0.98;100.00;100119.91;5043775;28;20049;-38
2021/12/27 04:35:51;;;;;;;45.50;19.05;;;;;;;0.96;100.00;100116.56;5031841;28;20498;-41
2021/12/27 04:38:19;;;;;;;45.00;17.95;;;;;;;0.97;100.00;100118.22;5038470;28;20053;-33
2021/12/27 04:40:50;;;;;;;42.40;18.35;;;;;;;0.97;100.00;100107.25;5047469;28;20041;-37
2021/12/27 04:43:21;;;;;;;40.63;18.77;;;;;;;0.98;100.00;100119.06;5041392;28;20052;-36
2021/12/27 04:45:50;;;;;;;43.80;18.90;;;;;;;0.99;100.00;100113.31;5035581;28;20042;-32
2021/12/27 04:48:20;;;;;;;44.35;19.00;;;;;;;1.01;100.00;100113.88;5038931;28;20075;-37
2021/12/27 04:50:49;;;;;;;41.60;18.10;;;;;;;1.04;100.00;100107.03;5043809;28;20055;-37
2021/12/27 04:53:17;;;;;;;37.40;16.55;;;;;;;1.03;100.00;100108.94;5042066;28;20076;-38
2021/12/27 04:55:45;;;;;;;47.97;18.95;;;;;;;1.03;100.00;100105.38;5039032;28;20049;-37
2021/12/27 04:58:16;;;;;;;42.40;18.70;;;;;;;1.04;100.00;100102.38;5037776;28;20092;-34
2021/12/27 05:00:46;;;;;;;42.67;17.88;;;;;;;1.08;100.00;100096.38;5039681;28;20486;-41
2021/12/27 05:03:14;;;;;;;39.92;17.52;;;;;;;1.10;100.00;100097.78;5042416;28;20065;-36
2021/12/27 05:05:45;;;;;;;49.50;19.80;;;;;;;1.13;100.00;100085.47;5041030;28;20049;-35
2021/12/27 05:08:14;;;;;;;38.85;17.13;;;;;;;1.15;100.00;100075.88;5036120;28;20083;-33
2021/12/27 05:10:45;;;;;;;;;;;;;;;1.14;100.00;100071.47;5039812;28;20050;-37
2021/12/27 05:13:13;;;;;;;34.22;15.95;;;;;;;1.15;100.00;100069.53;5044947;28;19931;-34
2021/12/27 05:15:41;;;;;;;39.95;17.73;;;;;;;1.18;100.00;100080.03;5041120;28;20387;-37
2021/12/27 05:18:10;;;;;;;32.58;16.85;;;;;;;1.19;100.00;100078.94;5035822;28;20530;-31
2021/12/27 05:20:37;;;;;;;38.83;17.40;;;;;;;1.19;100.00;100076.19;5045246;28;20103;-37
2021/12/27 05:23:05;;;;;;;39.05;16.67;;;;;;;1.21;100.00;100077.56;5035282;28;20462;-36
2021/12/27 05:25:34;;;;;;;33.22;15.73;;;;;;;1.23;100.00;100074.56;5040479;28;20053;-34
2021/12/27 05:28:02;;;;;;;36.60;17.90;;;;;;;1.23;100.00;100071.81;5052830;28;20057;-32
2021/12/27 05:30:30;;;;;;;45.65;18.25;;;;;;;1.22;100.00;100072.91;5045971;28;20048;-33
2021/12/27 05:32:58;;;;;;;43.33;18.35;;;;;;;1.23;100.00;100072.66;5034549;28;20479;-33
2021/12/27 05:35:25;;;;;;;32.88;15.88;;;;;;;1.23;100.00;100071.81;5040560;28;20049;-38
2021/12/27 05:37:54;;;;;;;39.22;18.13;;;;;;;1.23;100.00;100066.31;5051678;28;20103;-39
2021/12/27 05:40:24;;;;;;;38.53;17.05;;;;;;;1.21;100.00;100057.50;5044744;28;20513;-33
2021/12/27 05:42:54;;;;;;;35.17;16.17;;;;;;;1.21;100.00;100052.00;5037500;28;20470;-42
2021/12/27 05:45:22;;;;;;;40.58;16.00;;;;;;;1.22;100.00;100054.50;5040995;28;20060;-38
2021/12/27 05:47:51;;;;;;;39.42;16.67;;;;;;;1.22;100.00;100042.69;5047925;28;20063;-38
2021/12/27 05:50:19;;;;;;;32.75;15.20;;;;;;;1.26;100.00;100046.56;5044215;28;20049;-36
2021/12/27 05:52:51;;;;;;;;;;;;;;;1.23;100.00;100044.34;5040898;28;20407;-34
2021/12/27 05:55:19;;;;;;;34.33;15.82;;;;;;;1.22;100.00;100031.69;5040761;28;19921;-33
2021/12/27 05:57:47;;;;;;;40.78;16.10;;;;;;;1.27;100.00;100037.25;5045329;28;20052;-31
2021/12/27 06:00:17;;;;;;;42.17;17.30;;;;;;;1.30;100.00;100028.50;5042857;28;20069;-39
2021/12/27 06:02:45;;;;;;;33.90;16.58;;;;;;;1.32;100.00;100024.41;5043967;28;20072;-36
2021/12/27 06:05:14;;;;;;;36.70;15.00;;;;;;;1.35;100.00;100031.31;5038459;28;20042;-36
2021/12/27 06:07:42;;;;;;;41.92;16.85;;;;;;;1.35;100.00;100031.31;5041415;28;20045;-36
2021/12/27 06:10:11;;;;;;;33.17;15.70;;;;;;;1.35;100.00;100025.81;5047802;28;20107;-34
2021/12/27 06:12:40;;;;;;;34.42;15.38;;;;;;;1.36;100.00;100014.56;5044594;28;20052;-33
2021/12/27 06:15:09;;;;;;;25.85;13.57;;;;;;;1.39;100.00;100010.47;5036551;28;20127;-35
2021/12/27 06:17:38;;;;;;;44.28;15.23;;;;;;;1.41;100.00;100019.25;5041179;28;20045;-37
2021/12/27 06:20:09;;;;;;;44.05;16.65;;;;;;;1.42;100.00;100009.91;5049957;28;20060;-35
2021/12/27 06:22:40;;;;;;;41.22;17.02;;;;;;;1.43;100.00;100016.25;5045248;28;20454;-32
2021/12/27 06:25:08;;;;;;;38.45;16.90;;;;;;;1.44;100.00;100018.72;5035109;28;20136;-36
2021/12/27 06:27:36;;;;;;;40.38;16.85;;;;;;;1.45;100.00;100020.41;5040274;28;20051;-39
2021/12/27 06:30:07;;;;;;;39.67;16.35;;;;;;;1.45;100.00;100036.06;5048920;28;20056;-32
2021/12/27 06:32:35;;;;;;;45.65;18.38;;;;;;;1.43;100.00;100039.06;5046047;28;20057;-32
2021/12/27 06:35:06;;;;;;;39.55;16.50;;;;;;;1.46;100.00;100032.22;5034212;28;20053;-38
2021/12/27 06:37:34;;;;;;;51.00;17.23;;;;;;;1.44;100.00;100037.97;5038768;28;20418;-36
2021/12/27 06:40:03;;;;;;;46.47;17.00;;;;;;;1.45;100.00;100047.06;5050855;28;20068;-39
2021/12/27 06:42:31;;;;;;;45.90;16.58;;;;;;;1.43;100.00;100041.81;5044195;28;20049;-40
2021/12/27 06:44:59;;;;;;;37.72;16.88;;;;;;;1.44;100.00;100046.22;5035709;28;20503;-35
2021/12/27 06:47:27;;;;;;;59.40;19.25;;;;;;;1.42;100.00;100053.91;5041018;28;20112;-31
2021/12/27 06:49:55;;;;;;;45.13;17.58;;;;;;;1.43;100.00;100055.56;5046740;28;20052;-29
2021/12/27 06:52:25;;;;;;;45.10;16.70;;;;;;;1.43;100.00;100054.72;5043696;28;20037;-36
2021/12/27 06:54:53;;;;;;;56.60;17.75;;;;;;;1.42;100.00;100059.38;5039075;28;20395;-33
2021/12/27 06:57:30;;;;;;;125.05;19.58;;;;;;;1.42;100.00;100058.56;5039910;28;20049;-33
2021/12/27 06:59:59;;;;;;;50.22;16.65;;;;;;;1.42;100.00;100061.31;5044413;28;20111;-33
2021/12/27 07:02:26;;;;;;;47.00;17.55;;;;;;;1.40;100.00;100055.28;5043632;28;20426;-33
2021/12/27 07:04:54;;;;;;;52.15;17.00;;;;;;;1.40;100.00;100060.75;5040790;28;20045;-35
2021/12/27 07:07:25;;;;;;;38.03;15.48;;;;;;;1.40;100.00;100045.06;5037979;28;20711;-29
2021/12/27 07:09:54;;;;;;;53.40;16.52;;;;;;;1.42;100.00;100044.81;5031204;28;20061;-37
2021/12/27 07:12:22;;;;;;;48.17;16.70;;;;;;;1.45;100.00;100036.06;5035035;28;20037;-30
2021/12/27 07:14:50;;;;;;;54.35;17.55;;;;;;;1.46;100.00;100041.28;5038097;28;20063;-33
2021/12/27 07:17:18;;;;;;;60.38;18.23;;;;;;;1.48;100.00;100041.03;5044055;28;20574;-40
2021/12/27 07:19:46;;;;;;;54.58;17.60;;;;;;;1.50;100.00;100038.88;5040979;28;20044;-38
2021/12/27 07:22:14;;;;;;;56.22;18.10;;;;;;;1.51;100.00;100046.84;5033992;28;20421;-37
2021/12/27 07:24:43;;;;;;;46.28;16.92;;;;;;;1.49;100.00;100049.03;5037223;28;20470;-32
2021/12/27 07:27:10;;;;;;;57.70;18.63;;;;;;;1.49;100.00;100048.19;5045984;28;20391;-38
2021/12/27 07:29:38;;;;;;;45.53;17.52;;;;;;;1.49;100.00;100043.53;5043994;28;20079;-32
2021/12/27 07:32:07;;;;;;;41.10;15.50;;;;;;;1.50;100.00;100047.94;5048168;28;20046;-39
2021/12/27 07:34:39;;;;;;;47.35;16.40;;;;;;;1.52;100.00;100048.50;5035904;28;20060;-36
2021/12/27 07:37:06;;;;;;;45.20;16.08;;;;;;;1.53;100.00;100044.69;5032773;28;20064;-32
2021/12/27 07:39:34;;;;;;;45.72;17.08;;;;;;;1.55;100.00;100045.25;5037586;28;20053;-36
2021/12/27 07:42:04;;;;;;;39.92;16.98;;;;;;;1.56;100.00;100044.16;5049562;28;20061;-32
2021/12/27 07:44:32;;;;;;;40.58;15.55;;;;;;;1.57;100.00;100043.06;5043469;28;20502;-40
2021/12/27 07:46:59;;;;;;;45.40;16.88;;;;;;;1.58;100.00;100052.97;5033439;28;20045;-42
2021/12/27 07:49:27;;;;;;;51.95;17.13;;;;;;;1.58;100.00;100052.97;5039368;28;20443;-38
2021/12/27 07:51:55;;;;;;;45.72;16.85;;;;;;;1.57;100.00;100048.56;5045823;28;20078;-36
2021/12/27 07:54:23;;;;;;;42.00;16.48;;;;;;;1.59;100.00;100046.41;5041693;28;20049;-38
2021/12/27 07:56:51;;;;;;;44.80;18.20;;;;;;;1.60;100.00;100045.28;5044495;28;20053;-34
2021/12/27 07:59:23;;;;;;;49.75;17.23;;;;;;;1.59;100.00;100048.31;5035653;28;20046;-38
2021/12/27 08:01:50;;;;;;;37.03;16.58;;;;;;;1.61;100.00;100038.69;5038727;28;20049;-34
2021/12/27 08:04:19;;;;;;;43.50;16.00;;;;;;;1.62;100.00;100037.59;5036335;28;20417;-35
2021/12/27 08:06:46;;;;;;;46.90;16.75;;;;;;;1.65;100.00;100041.75;5038520;28;20050;-32
2021/12/27 08:09:14;;;;;;;42.35;17.02;;;;;;;1.69;100.00;100037.41;5042935;28;20132;-36
2021/12/27 08:11:43;;;;;;;38.45;17.80;;;;;;;1.70;100.00;100034.38;5040980;28;20083;-38
2021/12/27 08:14:10;;;;;;;44.20;17.60;;;;;;;1.72;100.00;100037.72;5043831;28;20053;-39
2021/12/27 08:16:39;;;;;;;38.50;16.38;;;;;;;1.74;100.00;100031.94;5038681;28;20521;-34
2021/12/27 08:19:07;;;;;;;33.47;15.25;;;;;;;1.76;100.00;100043.53;5041604;28;20494;-32
2021/12/27 08:21:37;;;;;;;32.47;15.82;;;;;;;1.79;100.00;100042.19;5038443;28;20045;-32
2021/12/27 08:24:06;;;;;;;46.55;17.60;;;;;;;1.81;100.00;100049.03;5031498;28;20494;-34
2021/12/27 08:26:34;;;;;;;29.33;14.70;;;;;;;1.83;100.00;100043.28;5037801;28;20045;-36
2021/12/27 08:29:04;;;;;;;45.08;17.20;;;;;;;1.83;100.00;100040.53;5049109;28;20040;-31
2021/12/27 08:31:32;;;;;;;41.00;17.13;;;;;;;1.84;100.00;100036.69;5039785;28;20116;-38
2021/12/27 08:34:01;;;;;;;32.60;14.73;;;;;;;1.87;100.00;100038.94;5039904;28;20057;-41
2021/12/27 08:36:29;;;;;;;38.42;15.77;;;;;;;1.90;100.00;100042.00;5034206;28;20048;-36
2021/12/27 08:38:57;;;;;;;37.25;17.00;;;;;;;1.92;100.00;100037.06;5048513;28;20053;-35
2021/12/27 08:41:28;;;;;;;46.88;16.77;;;;;;;1.96;100.00;100048.38;5049990;28;20409;-34
2021/12/27 08:43:57;;;;;;;46.42;16.42;;;;;;;1.98;100.00;100040.69;5033369;28;20487;-35
2021/12/27 08:46:25;;;;;;;39.38;15.68;;;;;;;1.99;100.00;100034.94;5041183;28;20045;-37
2021/12/27 08:48:53;;;;;;;38.05;15.13;;;;;;;2.03;100.00;100044.28;5035277;28;20049;-37
2021/12/27 08:51:22;;;;;;;49.08;15.73;;;;;;;2.05;100.00;100039.34;5039470;28;20041;-33
2021/12/27 08:53:49;;;;;;;40.95;17.00;;;;;;;2.08;100.00;100035.25;5047274;28;20079;-35
2021/12/27 08:56:18;;;;;;;38.20;14.57;;;;;;;2.12;100.00;100036.38;5038738;28;20058;-36
2021/12/27 08:58:46;;;;;;;40.40;15.52;;;;;;;2.14;100.00;100033.38;5040590;28;20117;-34
2021/12/27 09:01:13;;;;;;;42.80;15.00;;;;;;;2.17;100.00;100030.94;5042186;28;20045;-35
2021/12/27 09:03:42;;;;;;;35.90;14.73;;;;;;;2.21;100.00;100017.44;5043066;28;20041;-36
2021/12/27 09:06:10;;;;;;;45.38;15.95;;;;;;;2.25;100.00;100019.41;5047531;28;20449;-37
2021/12/27 09:08:39;;;;;;;38.67;14.95;;;;;;;2.28;100.00;100021.63;5041843;28;20055;-33
2021/12/27 09:11:07;;;;;;;44.55;16.17;;;;;;;2.29;100.00;100023.28;5048013;28;20197;-37
2021/12/27 09:13:36;;;;;;;46.97;16.60;;;;;;;2.31;100.00;100015.59;5045441;28;20045;-30
2021/12/27 09:16:05;;;;;;;33.72;14.13;;;;;;;2.35;100.00;100008.47;5038236;28;20080;-34
2021/12/27 09:18:35;;;;;;;27.65;11.90;;;;;;;2.40;100.00;100010.41;5040303;28;20135;-35
2021/12/27 09:21:04;;;;;;;26.55;13.48;;;;;;;2.45;100.00;100009.63;5051631;28;20045;-35
2021/12/27 09:23:32;;;;;;;29.00;14.02;;;;;;;2.49;100.00;100016.25;5046577;28;20135;-36
2021/12/27 09:26:01;;;;;;;36.25;14.10;;;;;;;2.52;100.00;100019.31;5034536;28;20057;-38
2021/12/27 09:28:29;;;;;;;36.28;13.73;;;;;;;2.55;100.00;100021.53;5040725;28;20053;-37
2021/12/27 09:30:57;;;;;;;30.85;14.40;;;;;;;2.58;100.00;100007.22;5050508;28;20049;-35
2021/12/27 09:33:25;;;;;;;31.83;13.10;;;;;;;2.62;100.00;100007.50;5044793;28;20506;-35
2021/12/27 09:35:54;;;;;;;29.80;14.35;;;;;;;2.64;100.00;100008.91;5035672;28;20098;-35
2021/12/27 09:38:21;;;;;;;32.42;14.57;;;;;;;2.68;100.00;100010.03;5040142;28;20061;-35
2021/12/27 09:40:49;;;;;;;36.55;15.95;;;;;;;2.71;100.00;100005.91;5050533;28;20141;-36
2021/12/27 09:43:19;;;;;;;39.47;16.77;;;;;;;2.73;100.00;100014.72;5044969;28;20076;-34
2021/12/27 09:45:46;;;;;;;33.58;14.10;;;;;;;2.78;100.00;100008.44;5037835;28;20136;-39
2021/12/27 09:48:14;;;;;;;34.15;14.70;;;;;;;2.79;100.00;100016.41;5041737;28;20077;-28
2021/12/27 09:50:45;;;;;;;42.05;16.27;;;;;;;2.81;100.00;99999.59;5046325;28;20049;-38
2021/12/27 09:53:13;;;;;;;46.40;17.15;;;;;;;2.83;100.00;100002.91;5043702;28;20426;-39
2021/12/27 09:55:52;;;;;;;38.15;15.63;;;;;;;2.85;100.00;100006.22;5040801;28;20123;-32
2021/12/27 09:58:21;;;;;;;41.35;15.40;;;;;;;2.86;100.00;99997.69;5041008;28;20059;-36
2021/12/27 10:00:49;;;;;;;42.38;15.48;;;;;;;2.87;100.00;100004.88;5043626;28;20338;-34
2021/12/27 10:03:17;;;;;;;43.53;16.77;;;;;;;2.87;100.00;100010.38;5044235;28;20095;-34
2021/12/27 10:05:45;;;;;;;60.95;18.45;;;;;;;2.84;100.00;99994.38;5042309;28;20049;-33
2021/12/27 10:08:13;;;;;;;45.92;16.70;;;;;;;2.87;100.00;99990.25;5045572;28;20049;-36
2021/12/27 10:10:40;;;;;;;35.65;15.68;;;;;;;2.90;100.00;99982.28;5043802;28;20045;-36
2021/12/27 10:13:09;;;;;;;48.85;16.13;;;;;;;2.92;100.00;99985.59;5037298;28;20052;-38
2021/12/27 10:15:40;;;;;;;36.90;15.05;;;;;;;2.95;100.00;99982.31;5043847;28;20041;-34
2021/12/27 10:18:10;;;;;;;33.10;14.45;;;;;;;2.95;100.00;99984.25;5037227;28;20057;-34
2021/12/27 10:20:38;;;;;;;41.17;15.52;;;;;;;2.96;100.00;99981.22;5039529;28;20092;-32
2021/12/27 10:23:06;;;;;;;34.25;14.85;;;;;;;2.99;100.00;99979.84;5049473;28;20053;-36
2021/12/27 10:25:34;;;;;;;34.65;15.10;;;;;;;2.99;100.00;99982.59;5044997;28;20502;-33
2021/12/27 10:28:03;;;;;;;44.38;16.63;;;;;;;3.01;100.00;99983.97;5033555;28;20136;-36
2021/12/27 10:30:32;;;;;;;37.75;15.30;;;;;;;3.02;100.00;99985.63;5039849;28;20053;-38
2021/12/27 10:33:12;;;;;;;36.72;15.20;;;;;;;3.06;100.00;99981.22;5051313;28;20119;-38
2021/12/27 10:35:42;;;;;;;36.42;14.57;;;;;;;3.08;100.00;99976.28;5043508;28;20073;-32
2021/12/27 10:38:20;;;;;;;42.20;14.73;;;;;;;3.10;100.00;99976.84;5033880;28;20079;-31
2021/12/27 10:40:50;;;;;;;53.97;17.55;;;;;;;3.12;100.00;99979.31;5039463;28;20405;-32
2021/12/27 10:43:19;;;;;;;48.60;16.20;;;;;;;3.11;100.00;99967.47;5032688;28;20554;-36
2021/12/27 10:45:49;;;;;;;36.25;14.98;;;;;;;3.15;100.00;99955.91;5045156;28;20402;-32
2021/12/27 10:48:22;;;;;;;40.95;16.05;;;;;;;3.20;100.00;99953.16;5034291;28;20049;-35
2021/12/27 10:50:50;;;;;;;38.40;15.30;;;;;;;3.24;100.00;99960.59;5038531;28;20045;-43
2021/12/27 10:53:18;;;;;;;32.97;15.23;;;;;;;3.31;100.00;99957.59;5049368;28;20414;-32
2021/12/27 10:55:48;;;;;;;31.83;14.75;;;;;;;3.35;100.00;99942.97;5042529;28;20115;-39
2021/12/27 10:58:20;;;;;;;31.75;14.10;;;;;;;3.40;100.00;99940.22;5036283;28;20053;-34
2021/12/27 11:00:51;;;;;;;40.83;15.38;;;;;;;3.44;100.00;99946.00;5040412;28;20140;-40
2021/12/27 11:03:30;;;;;;;44.22;16.13;;;;;;;3.50;100.00;99931.13;5046222;28;20100;-37
2021/12/27 11:06:00;;;;;;;41.22;15.07;;;;;;;3.53;100.00;99936.09;5043450;28;20041;-36
2021/12/27 11:08:28;;;;;;;45.90;16.02;;;;;;;3.59;100.00;99932.25;5037892;28;20103;-35
2021/12/27 11:10:57;;;;;;;40.72;15.52;;;;;;;3.64;100.00;99920.34;5038622;28;20563;-38
2021/12/27 11:13:26;;;;;;;46.30;15.70;;;;;;;3.65;100.00;99911.81;5043435;28;20158;-32
2021/12/27 11:15:55;;;;;;;37.22;15.45;;;;;;;3.68;100.00;99900.22;5042667;28;20435;-33
2021/12/27 11:18:23;;;;;;;37.03;15.02;;;;;;;3.73;100.00;99897.47;5040527;28;20114;-33
2021/12/27 11:20:56;;;;;;;31.75;15.00;;;;;;;3.79;100.00;99907.41;5039542;28;20438;-32